createdAt,value
2023-03-03T00:00:45.486Z,4.93
2023-03-03T00:03:15.958Z,7.18
2023-03-03T00:05:42.862Z,4.97
2023-03-03T00:08:11.157Z,5.13
2023-03-03T00:10:38.793Z,5.32
2023-03-03T00:13:13.381Z,5.07
2023-03-03T00:15:40.397Z,4.53
2023-03-03T00:18:19.772Z,4.03
2023-03-03T00:20:53.503Z,5.20
2023-03-03T00:23:24.848Z,3.90
2023-03-03T00:25:53.535Z,5.00
2023-03-03T00:28:32.520Z,5.10
2023-03-03T00:31:01.671Z,4.47
2023-03-03T00:33:33.995Z,4.07
2023-03-03T00:36:19.315Z,5.07
2023-03-03T00:38:46.562Z,4.95
2023-03-03T00:41:31.398Z,3.75
2023-03-03T00:43:58.579Z,4.88
2023-03-03T00:46:25.364Z,4.18
2023-03-03T00:48:52.867Z,4.60
2023-03-03T00:51:30.933Z,4.53
2023-03-03T00:53:58.293Z,4.57
2023-03-03T00:56:25.238Z,5.13
2023-03-03T00:58:52.332Z,5.13
2023-03-03T01:01:21.773Z,5.60
2023-03-03T01:06:18.538Z,4.97
2023-03-03T01:08:45.267Z,5.38
2023-03-03T01:11:28.631Z,4.70
2023-03-03T01:13:56.676Z,4.18
2023-03-03T01:16:23.510Z,4.30
2023-03-03T01:18:50.697Z,3.50
2023-03-03T01:21:17.485Z,5.57
2023-03-03T01:23:44.151Z,5.07
2023-03-03T01:26:11.080Z,4.35
2023-03-03T01:28:38.825Z,6.18
2023-03-03T01:31:06.039Z,3.58
2023-03-03T01:33:35.140Z,5.38
2023-03-03T01:36:03.519Z,5.40
2023-03-03T01:38:30.487Z,5.85
2023-03-03T01:40:59.301Z,7.53
2023-03-03T01:43:31.149Z,4.95
2023-03-03T01:46:03.879Z,4.63
2023-03-03T01:48:35.184Z,5.57
2023-03-03T01:51:10.673Z,4.63
2023-03-03T01:53:43.617Z,5.15
2023-03-03T01:56:12.070Z,6.05
2023-03-03T01:58:44.200Z,6.22
2023-03-03T02:01:31.553Z,6.40
2023-03-03T02:03:59.011Z,6.70
2023-03-03T02:06:33.821Z,7.65
2023-03-03T02:09:12.348Z,6.72
2023-03-03T02:11:41.253Z,5.38
2023-03-03T02:14:07.992Z,7.97
2023-03-03T02:16:35.424Z,8.50
2023-03-03T02:19:02.199Z,8.10
2023-03-03T02:21:29.143Z,7.80
2023-03-03T02:24:34.629Z,8.95
2023-03-03T02:27:01.521Z,8.15
2023-03-03T02:29:29.452Z,7.22
2023-03-03T02:31:57.356Z,7.43
2023-03-03T02:34:25.306Z,7.85
2023-03-03T02:36:52.728Z,7.47
2023-03-03T02:39:26.550Z,8.05
2023-03-03T02:42:03.571Z,6.10
2023-03-03T02:44:36.795Z,8.45
2023-03-03T02:47:03.697Z,8.52
2023-03-03T02:49:33.796Z,7.90
2023-03-03T02:52:03.238Z,7.25
2023-03-03T02:54:31.222Z,7.40
2023-03-03T02:57:00.173Z,8.90
2023-03-03T02:59:27.559Z,8.65
2023-03-03T03:01:57.414Z,6.00
2023-03-03T03:04:26.229Z,6.85
2023-03-03T03:06:54.697Z,5.28
2023-03-03T03:09:23.609Z,6.78
2023-03-03T03:11:52.115Z,7.25
2023-03-03T03:14:23.419Z,7.07
2023-03-03T03:16:50.635Z,7.90
2023-03-03T03:19:17.318Z,8.07
2023-03-03T03:21:45.038Z,7.82
2023-03-03T03:24:11.764Z,7.30
2023-03-03T03:26:42.853Z,6.82
2023-03-03T03:29:11.096Z,8.45
2023-03-03T03:31:39.286Z,8.20
2023-03-03T03:34:06.144Z,6.97
2023-03-03T03:36:33.655Z,8.35
2023-03-03T03:39:02.877Z,6.80
2023-03-03T03:41:30.562Z,9.23
2023-03-03T03:43:57.453Z,8.00
2023-03-03T03:46:29.090Z,8.68
2023-03-03T03:48:56.550Z,8.27
2023-03-03T03:51:23.286Z,8.55
2023-03-03T03:53:50.088Z,9.73
2023-03-03T03:56:17.662Z,7.57
2023-03-03T03:58:47.381Z,8.20
2023-03-03T04:01:15.226Z,6.78
2023-03-03T04:03:46.686Z,5.82
2023-03-03T04:08:44.409Z,5.97
2023-03-03T04:11:11.478Z,7.10
2023-03-03T04:13:38.359Z,6.93
2023-03-03T04:16:07.487Z,5.95
2023-03-03T04:18:35.594Z,7.57
2023-03-03T04:21:03.426Z,7.82
2023-03-03T04:23:30.332Z,7.32
2023-03-03T04:25:57.084Z,6.25
2023-03-03T04:28:25.394Z,7.38
2023-03-03T04:30:52.666Z,5.00
2023-03-03T04:33:21.411Z,7.95
2023-03-03T04:35:49.287Z,6.40
2023-03-03T04:38:16.164Z,6.50
2023-03-03T04:40:43.601Z,6.18
2023-03-03T04:43:13.025Z,5.68
2023-03-03T04:45:39.856Z,5.70
2023-03-03T04:48:07.464Z,5.15
2023-03-03T04:50:35.031Z,6.05
2023-03-03T04:53:02.168Z,6.53
2023-03-03T04:55:28.850Z,6.90
2023-03-03T04:57:55.620Z,8.07
2023-03-03T05:00:23.032Z,7.68
2023-03-03T05:02:49.921Z,6.47
2023-03-03T05:05:16.927Z,5.15
2023-03-03T05:07:43.833Z,6.20
2023-03-03T05:10:11.114Z,6.80
2023-03-03T05:12:37.955Z,7.35
2023-03-03T05:15:05.286Z,5.75
2023-03-03T05:17:32.131Z,7.13
2023-03-03T05:19:58.824Z,5.22
2023-03-03T05:22:28.446Z,6.72
2023-03-03T05:24:55.648Z,7.35
2023-03-03T05:27:22.419Z,4.68
2023-03-03T05:29:49.439Z,8.35
2023-03-03T05:32:16.148Z,6.60
2023-03-03T05:34:43.141Z,5.20
2023-03-03T05:37:09.897Z,6.25
2023-03-03T05:39:36.699Z,6.95
2023-03-03T05:42:03.538Z,5.78
2023-03-03T05:44:30.288Z,7.30
2023-03-03T05:46:57.751Z,4.60
2023-03-03T05:49:26.062Z,5.50
2023-03-03T05:51:52.824Z,7.38
2023-03-03T05:54:19.540Z,5.97
2023-03-03T05:56:46.366Z,4.38
2023-03-03T05:59:13.066Z,5.82
2023-03-03T06:01:39.875Z,7.47
2023-03-03T06:04:06.651Z,6.93
2023-03-03T06:06:34.065Z,7.22
2023-03-03T06:09:01.306Z,19.63
2023-03-03T06:11:28.274Z,20.10
2023-03-03T06:13:54.949Z,19.55
2023-03-03T06:16:21.748Z,20.30
2023-03-03T06:18:48.501Z,18.52
2023-03-03T06:21:15.436Z,22.42
2023-03-03T06:23:42.271Z,23.63
2023-03-03T06:26:09.412Z,25.33
2023-03-03T06:28:36.127Z,26.65
2023-03-03T06:31:02.815Z,21.33
2023-03-03T06:33:31.177Z,20.63
2023-03-03T06:35:59.029Z,23.17
2023-03-03T06:38:26.729Z,20.65
2023-03-03T06:40:53.532Z,20.38
2023-03-03T06:43:20.610Z,21.10
2023-03-03T06:45:47.457Z,21.40
2023-03-03T06:48:14.215Z,20.88
2023-03-03T06:50:41.033Z,23.13
2023-03-03T06:53:14.935Z,24.88
2023-03-03T06:55:44.579Z,27.60
2023-03-03T06:58:19.727Z,30.52
2023-03-03T07:00:57.206Z,34.55
2023-03-03T07:03:32.228Z,29.98
2023-03-03T07:05:58.980Z,28.58
2023-03-03T07:08:31.232Z,25.20
2023-03-03T07:11:02.022Z,25.30
2023-03-03T07:15:59.515Z,23.45
2023-03-03T07:18:54.610Z,21.98
2023-03-03T07:21:23.788Z,28.15
2023-03-03T07:23:52.553Z,26.65
2023-03-03T07:26:23.213Z,26.60
2023-03-03T07:31:39.214Z,22.42
2023-03-03T07:34:42.713Z,23.17
2023-03-03T07:37:19.151Z,23.35
2023-03-03T07:39:47.417Z,23.85
2023-03-03T07:42:29.630Z,27.52
2023-03-03T07:45:32.720Z,23.05
2023-03-03T07:48:17.516Z,21.25
2023-03-03T07:50:44.282Z,22.60
2023-03-03T07:53:27.190Z,23.15
2023-03-03T07:55:54.456Z,20.38
2023-03-03T07:58:28.345Z,22.45
2023-03-03T08:01:33.649Z,24.02
2023-03-03T08:04:01.398Z,24.10
2023-03-03T08:06:35.896Z,30.15
2023-03-03T08:09:11.806Z,23.90
2023-03-03T08:12:00.298Z,27.20
2023-03-03T08:14:33.393Z,26.15
2023-03-03T08:17:01.979Z,27.88
2023-03-03T08:19:30.967Z,24.95
2023-03-03T08:22:18.713Z,27.35
2023-03-03T08:24:45.485Z,27.63
2023-03-03T08:27:12.165Z,28.80
2023-03-03T08:29:38.985Z,28.15
2023-03-03T08:32:05.779Z,27.70
2023-03-03T08:34:32.601Z,27.48
2023-03-03T08:36:59.399Z,28.85
2023-03-03T08:39:26.325Z,30.17
2023-03-03T08:41:53.012Z,30.02
2023-03-03T08:44:20.763Z,26.13
2023-03-03T08:46:47.607Z,22.90
2023-03-03T08:49:14.466Z,28.30
2023-03-03T08:51:41.467Z,29.92
2023-03-03T08:54:08.401Z,25.50
2023-03-03T08:56:35.161Z,26.60
2023-03-03T08:59:03.167Z,27.42
2023-03-03T09:01:33.675Z,29.10
2023-03-03T09:04:00.816Z,30.27
2023-03-03T09:06:27.792Z,27.38
2023-03-03T09:08:55.183Z,29.30
2023-03-03T09:11:27.641Z,28.85
2023-03-03T09:14:15.064Z,27.25
2023-03-03T09:16:52.474Z,30.42
2023-03-03T09:19:39.462Z,27.98
2023-03-03T09:22:20.859Z,29.50
2023-03-03T09:24:48.253Z,26.33
2023-03-03T09:27:31.508Z,26.83
2023-03-03T09:30:03.362Z,27.80
2023-03-03T09:32:39.822Z,26.42
2023-03-03T09:35:36.389Z,24.92
2023-03-03T09:38:26.524Z,26.27
2023-03-03T09:41:05.482Z,26.52
2023-03-03T09:43:35.180Z,25.63
2023-03-03T09:46:14.772Z,25.20
2023-03-03T09:48:53.178Z,26.25
2023-03-03T09:51:22.932Z,27.92
2023-03-03T09:53:58.607Z,26.90
2023-03-03T09:56:29.601Z,25.35
2023-03-03T09:59:25.449Z,23.85
2023-03-03T10:02:23.268Z,22.92
2023-03-03T10:05:38.048Z,23.35
2023-03-03T10:08:12.681Z,23.45
2023-03-03T10:11:05.245Z,24.42
2023-03-03T10:13:55.889Z,22.40
2023-03-03T10:16:58.608Z,24.05
2023-03-03T10:19:37.827Z,22.13
2023-03-03T10:22:19.590Z,21.83
2023-03-03T10:24:46.593Z,20.67
2023-03-03T10:27:38.643Z,20.95
2023-03-03T10:30:37.133Z,20.55
2023-03-03T10:33:28.506Z,21.92
2023-03-03T10:36:07.386Z,22.45
2023-03-03T10:41:49.000Z,19.77
2023-03-03T10:44:26.195Z,17.90
2023-03-03T10:47:07.893Z,20.40
2023-03-03T10:49:53.433Z,20.08
2023-03-03T11:07:50.871Z,19.73
2023-03-03T17:15:51.049Z,7.00
2023-03-03T17:18:44.805Z,8.43
2023-03-03T17:21:31.131Z,7.00
2023-03-03T17:24:35.078Z,7.60
2023-03-03T17:27:40.199Z,7.57
2023-03-03T17:30:22.543Z,8.77
2023-03-03T17:35:31.507Z,9.80
2023-03-03T17:38:12.770Z,10.60
2023-03-03T17:41:09.607Z,9.52
2023-03-03T17:43:54.092Z,9.52
2023-03-03T17:46:29.574Z,8.65
2023-03-03T17:51:44.339Z,6.88
2023-03-03T17:54:19.573Z,5.97
2023-03-03T17:56:49.073Z,6.78
2023-03-03T17:59:52.244Z,6.07
2023-03-03T18:02:37.458Z,6.28
2023-03-03T18:05:22.561Z,6.68
2023-03-03T18:08:02.505Z,6.22
2023-03-03T18:10:42.841Z,6.68
2023-03-03T18:13:38.692Z,6.10
2023-03-03T18:16:19.215Z,7.28
2023-03-03T18:18:57.401Z,6.28
2023-03-03T18:21:30.669Z,7.25
2023-03-03T18:24:25.391Z,7.47
2023-03-03T18:26:55.941Z,6.70
2023-03-03T18:29:27.945Z,6.70
2023-03-03T18:31:57.497Z,6.63
2023-03-03T18:34:35.689Z,8.00
2023-03-03T18:37:09.943Z,8.27
2023-03-03T18:39:41.135Z,7.45
2023-03-03T18:42:16.984Z,8.50
2023-03-03T18:44:44.409Z,8.90
2023-03-03T18:47:11.445Z,7.75
2023-03-03T18:50:17.037Z,6.65
2023-03-03T18:53:06.476Z,7.10
2023-03-03T18:55:43.143Z,7.82
2023-03-03T18:58:15.954Z,7.85
2023-03-03T19:00:49.318Z,7.65
2023-03-03T19:03:37.890Z,8.50
2023-03-03T19:06:08.568Z,6.50
2023-03-03T19:11:42.509Z,17.92
2023-03-03T19:14:17.807Z,8.20
2023-03-03T19:16:45.283Z,8.60
2023-03-03T19:19:17.207Z,7.35
2023-03-03T19:21:48.134Z,7.80
2023-03-03T19:24:33.749Z,8.18
2023-03-03T19:27:28.593Z,7.47
2023-03-03T19:30:13.938Z,7.78
2023-03-03T19:32:58.595Z,6.30
2023-03-03T19:35:55.077Z,7.60
2023-03-03T19:38:43.287Z,6.75
2023-03-03T19:41:18.542Z,7.82
2023-03-03T19:44:08.153Z,6.40
2023-03-03T19:46:50.436Z,6.10
2023-03-03T19:49:51.346Z,6.80
2023-03-03T19:55:03.049Z,6.30
2023-03-03T19:58:10.026Z,7.38
2023-03-03T20:00:46.674Z,6.25
2023-03-03T20:03:50.562Z,7.15
2023-03-03T20:06:46.102Z,6.50
2023-03-03T20:09:23.378Z,6.40
2023-03-03T20:11:53.073Z,6.85
2023-03-03T20:14:49.285Z,6.55
2023-03-03T20:17:36.406Z,6.10
2023-03-03T20:20:06.028Z,9.38
2023-03-03T20:22:40.803Z,7.28
2023-03-03T20:25:19.727Z,6.97
2023-03-03T20:28:14.194Z,5.82
2023-03-03T20:31:07.120Z,6.10
2023-03-03T20:34:18.404Z,6.22
2023-03-03T20:37:03.251Z,6.07
2023-03-03T20:39:48.435Z,5.32
2023-03-03T20:43:07.414Z,5.65
2023-03-03T20:45:55.833Z,6.15
2023-03-03T20:48:40.738Z,6.15
2023-03-03T20:51:47.984Z,5.82
2023-03-03T20:54:41.870Z,6.43
2023-03-03T20:57:37.902Z,5.88
2023-03-03T21:00:12.004Z,6.40
2023-03-03T23:14:10.035Z,7.05
2023-03-03T23:16:36.677Z,6.88
2023-03-03T23:19:03.343Z,7.20
2023-03-03T23:21:29.938Z,7.95
2023-03-03T23:23:56.639Z,7.07
2023-03-03T23:26:23.301Z,6.57
2023-03-03T23:28:49.930Z,7.25
2023-03-03T23:31:16.537Z,7.65
2023-03-03T23:36:09.998Z,6.07
2023-03-03T23:45:56.506Z,5.78
2023-03-03T23:50:49.649Z,7.57
2023-03-03T23:53:16.355Z,7.22
2023-03-03T23:58:10.221Z,6.72
